createdAt,value
2018-11-07T00:00:21.493Z,97.34
2018-11-07T00:02:50.727Z,97.62
2018-11-07T00:05:20.567Z,97.59
2018-11-07T00:07:49.864Z,97.57
2018-11-07T00:10:18.989Z,97.91
2018-11-07T00:12:48.126Z,97.89
2018-11-07T00:15:17.303Z,98.47
2018-11-07T00:17:46.466Z,97.87
2018-11-07T00:20:15.649Z,98.16
2018-11-07T00:22:44.789Z,98.36
2018-11-07T00:25:13.958Z,98.62
2018-11-07T00:27:43.158Z,98.09
2018-11-07T00:30:12.576Z,98.24
2018-11-07T00:32:41.729Z,98.37
2018-11-07T00:35:12.492Z,98.63
2018-11-07T00:37:42.637Z,99.06
2018-11-07T00:40:12.336Z,99.30
2018-11-07T00:42:41.515Z,99.44
2018-11-07T00:45:12.697Z,99.19
2018-11-07T00:47:42.188Z,100.00
2018-11-07T00:50:15.878Z,100.00
2018-11-07T00:52:45.491Z,100.00
2018-11-07T00:55:15.629Z,100.00
2018-11-07T00:57:45.227Z,100.00
2018-11-07T01:00:18.106Z,100.00
2018-11-07T01:02:48.201Z,100.00
2018-11-07T01:05:17.424Z,100.00
2018-11-07T01:07:47.648Z,100.00
2018-11-07T01:10:16.949Z,100.00
2018-11-07T01:12:46.140Z,100.00
2018-11-07T01:15:15.458Z,100.00
2018-11-07T01:17:44.734Z,100.00
2018-11-07T01:20:14.564Z,100.00
2018-11-07T01:22:44.188Z,100.00
2018-11-07T01:25:13.459Z,100.00
2018-11-07T01:27:42.627Z,100.00
2018-11-07T01:30:13.898Z,100.00
2018-11-07T01:32:43.139Z,100.00
2018-11-07T01:35:12.456Z,100.00
2018-11-07T01:37:41.693Z,100.00
2018-11-07T01:40:13.038Z,100.00
2018-11-07T01:42:42.639Z,100.00
2018-11-07T01:45:12.609Z,100.00
2018-11-07T01:47:41.862Z,100.00
2018-11-07T01:50:12.777Z,100.00
2018-11-07T01:52:42.139Z,100.00
2018-11-07T01:55:12.041Z,100.00
2018-11-07T01:57:41.257Z,100.00
2018-11-07T02:00:12.056Z,100.00
2018-11-07T02:02:42.583Z,100.00
2018-11-07T02:05:12.116Z,100.00
2018-11-07T02:07:41.793Z,100.00
2018-11-07T02:10:11.536Z,100.00
2018-11-07T02:12:41.518Z,100.00
2018-11-07T02:15:11.673Z,100.00
2018-11-07T02:17:41.022Z,100.00
2018-11-07T02:20:12.118Z,100.00
2018-11-07T02:22:41.787Z,100.00
2018-11-07T02:25:11.113Z,100.00
2018-11-07T02:27:40.953Z,100.00
2018-11-07T02:30:11.851Z,100.00
2018-11-07T02:32:41.266Z,100.00
2018-11-07T02:35:10.455Z,100.00
2018-11-07T02:37:39.728Z,100.00
2018-11-07T02:40:09.433Z,100.00
2018-11-07T02:42:38.806Z,100.00
2018-11-07T02:45:08.228Z,100.00
2018-11-07T02:47:37.914Z,100.00
2018-11-07T02:50:08.223Z,100.00
2018-11-07T02:52:37.511Z,100.00
2018-11-07T02:55:06.914Z,100.00
2018-11-07T02:57:36.165Z,100.00
2018-11-07T03:00:08.267Z,100.00
2018-11-07T03:02:37.602Z,100.00
2018-11-07T03:05:07.181Z,100.00
2018-11-07T03:07:36.785Z,100.00
2018-11-07T03:10:07.628Z,100.00
2018-11-07T03:12:36.953Z,100.00
2018-11-07T03:15:06.490Z,100.00
2018-11-07T03:17:36.236Z,100.00
2018-11-07T03:20:07.463Z,100.00
2018-11-07T03:22:36.646Z,100.00
2018-11-07T03:25:06.098Z,100.00
2018-11-07T03:27:35.498Z,100.00
2018-11-07T03:30:06.053Z,100.00
2018-11-07T03:32:35.191Z,100.00
2018-11-07T03:35:04.507Z,100.00
2018-11-07T03:37:33.682Z,100.00
2018-11-07T03:40:04.056Z,100.00
2018-11-07T03:42:33.228Z,100.00
2018-11-07T03:45:02.411Z,100.00
2018-11-07T03:47:31.603Z,100.00
2018-11-07T03:50:00.827Z,100.00
2018-11-07T03:52:30.146Z,100.00
2018-11-07T03:54:59.342Z,100.00
2018-11-07T03:57:29.184Z,100.00
2018-11-07T03:59:58.609Z,100.00
2018-11-07T04:02:27.784Z,100.00
2018-11-07T04:04:57.386Z,100.00
2018-11-07T04:07:26.830Z,100.00
2018-11-07T04:09:56.007Z,100.00
2018-11-07T04:12:25.245Z,100.00
2018-11-07T04:14:54.561Z,100.00
2018-11-07T04:17:23.759Z,100.00
2018-11-07T04:19:53.041Z,100.00
2018-11-07T04:22:22.226Z,100.00
2018-11-07T04:24:51.392Z,100.00
2018-11-07T04:27:20.635Z,100.00
2018-11-07T04:29:50.839Z,100.00
2018-11-07T04:32:20.020Z,100.00
2018-11-07T04:34:49.234Z,100.00
2018-11-07T04:37:18.407Z,100.00
2018-11-07T04:39:47.631Z,100.00
2018-11-07T04:42:16.941Z,100.00
2018-11-07T04:44:46.114Z,100.00
2018-11-07T04:47:15.342Z,100.00
2018-11-07T04:49:44.490Z,100.00
2018-11-07T04:52:14.048Z,100.00
2018-11-07T04:54:43.242Z,100.00
2018-11-07T04:57:12.490Z,100.00
2018-11-07T04:59:41.688Z,100.00
2018-11-07T05:02:10.939Z,100.00
2018-11-07T05:04:40.207Z,100.00
2018-11-07T05:07:13.726Z,100.00
2018-11-07T05:09:42.962Z,100.00
2018-11-07T05:12:12.161Z,100.00
2018-11-07T05:14:41.384Z,100.00
2018-11-07T05:17:10.625Z,100.00
2018-11-07T05:19:39.882Z,100.00
2018-11-07T05:22:09.062Z,100.00
2018-11-07T05:24:38.302Z,100.00
2018-11-07T05:27:08.246Z,100.00
2018-11-07T05:29:37.984Z,100.00
2018-11-07T05:32:07.332Z,100.00
2018-11-07T05:34:36.497Z,100.00
2018-11-07T05:37:06.316Z,100.00
2018-11-07T05:39:35.615Z,100.00
2018-11-07T05:42:04.882Z,100.00
2018-11-07T05:44:34.148Z,100.00
2018-11-07T05:47:03.406Z,100.00
2018-11-07T05:49:32.627Z,100.00
2018-11-07T05:52:01.843Z,100.00
2018-11-07T05:54:31.038Z,100.00
2018-11-07T05:57:00.870Z,100.00
2018-11-07T05:59:30.027Z,100.00
2018-11-07T06:01:59.235Z,100.00
2018-11-07T06:04:28.485Z,100.00
2018-11-07T06:06:57.696Z,100.00
2018-11-07T06:09:26.954Z,100.00
2018-11-07T06:11:56.147Z,100.00
2018-11-07T06:14:25.280Z,100.00
2018-11-07T06:16:54.840Z,100.00
2018-11-07T06:19:26.419Z,100.00
2018-11-07T06:21:55.628Z,100.00
2018-11-07T06:24:24.934Z,100.00
2018-11-07T06:26:54.055Z,100.00
2018-11-07T06:29:23.363Z,100.00
2018-11-07T06:31:52.494Z,100.00
2018-11-07T06:34:21.752Z,100.00
2018-11-07T06:36:50.959Z,100.00
2018-11-07T06:39:20.089Z,100.00
2018-11-07T06:41:50.118Z,100.00
2018-11-07T06:44:19.269Z,100.00
2018-11-07T06:46:48.390Z,100.00
2018-11-07T06:49:17.762Z,100.00
2018-11-07T06:51:46.966Z,100.00
2018-11-07T06:54:16.139Z,100.00
2018-11-07T06:56:45.460Z,100.00
2018-11-07T06:59:14.719Z,100.00
2018-11-07T07:01:44.129Z,100.00
2018-11-07T07:04:13.406Z,100.00
2018-11-07T07:06:42.602Z,100.00
2018-11-07T07:09:11.960Z,100.00
2018-11-07T07:11:41.324Z,100.00
2018-11-07T07:14:10.651Z,100.00
2018-11-07T07:16:39.839Z,100.00
2018-11-07T07:19:09.284Z,100.00
2018-11-07T07:21:38.539Z,100.00
2018-11-07T07:24:07.773Z,100.00
2018-11-07T07:26:37.705Z,100.00
2018-11-07T07:29:07.081Z,100.00
2018-11-07T07:31:36.292Z,100.00
2018-11-07T07:34:05.552Z,100.00
2018-11-07T07:36:34.764Z,100.00
2018-11-07T07:39:04.952Z,100.00
2018-11-07T07:41:34.127Z,100.00
2018-11-07T07:44:03.604Z,100.00
2018-11-07T07:46:32.936Z,100.00
2018-11-07T07:49:02.185Z,100.00
2018-11-07T07:51:32.385Z,100.00
2018-11-07T07:54:01.738Z,100.00
2018-11-07T07:56:31.156Z,100.00
2018-11-07T07:59:00.395Z,100.00
2018-11-07T08:01:29.608Z,100.00
2018-11-07T08:03:58.810Z,100.00
2018-11-07T08:06:28.086Z,100.00
2018-11-07T08:08:57.303Z,100.00
2018-11-07T08:11:26.503Z,99.33
2018-11-07T08:13:55.729Z,97.47
2018-11-07T08:16:24.918Z,97.01
2018-11-07T08:18:54.082Z,96.09
2018-11-07T08:21:23.377Z,95.74
2018-11-07T08:23:52.533Z,95.71
2018-11-07T08:26:21.769Z,95.31
2018-11-07T08:28:50.980Z,95.95
2018-11-07T08:31:20.174Z,96.02
2018-11-07T08:33:49.420Z,94.96
2018-11-07T08:36:18.836Z,93.46
2018-11-07T08:38:48.027Z,93.71
2018-11-07T08:41:17.218Z,93.23
2018-11-07T08:43:46.436Z,92.27
2018-11-07T08:46:15.687Z,93.11
2018-11-07T08:48:45.026Z,91.61
2018-11-07T08:51:14.189Z,91.52
2018-11-07T08:53:43.418Z,89.80
2018-11-07T08:56:12.648Z,90.52
2018-11-07T08:58:41.944Z,90.63
2018-11-07T09:01:11.187Z,90.12
2018-11-07T09:03:40.510Z,88.52
2018-11-07T09:06:09.698Z,87.91
2018-11-07T09:08:38.892Z,89.85
2018-11-07T09:11:08.338Z,89.72
2018-11-07T09:13:38.757Z,89.02
2018-11-07T09:16:07.944Z,87.31
2018-11-07T09:18:37.138Z,87.15
2018-11-07T09:21:06.442Z,87.26
2018-11-07T09:23:35.787Z,87.98
2018-11-07T09:26:05.599Z,89.24
2018-11-07T09:28:34.752Z,88.40
2018-11-07T09:31:03.997Z,87.98
2018-11-07T09:33:33.252Z,87.07
2018-11-07T09:36:02.480Z,87.65
2018-11-07T09:38:31.724Z,86.68
2018-11-07T09:41:00.940Z,87.80
2018-11-07T09:43:30.173Z,86.79
2018-11-07T09:45:59.391Z,86.84
2018-11-07T09:48:28.575Z,86.73
2018-11-07T09:50:57.801Z,86.20
2018-11-07T09:53:27.109Z,86.48
2018-11-07T09:55:56.281Z,84.91
2018-11-07T09:58:25.566Z,84.46
2018-11-07T10:00:54.787Z,84.67
2018-11-07T10:03:23.961Z,85.23
2018-11-07T10:05:53.154Z,84.54
2018-11-07T10:08:22.338Z,84.38
2018-11-07T10:10:51.486Z,83.94
2018-11-07T10:13:20.662Z,85.12
2018-11-07T10:15:49.877Z,85.22
2018-11-07T10:18:19.071Z,84.38
2018-11-07T10:20:48.279Z,84.70
2018-11-07T10:23:17.514Z,84.68
2018-11-07T10:25:46.706Z,83.94
2018-11-07T10:28:16.010Z,82.57
2018-11-07T10:30:45.102Z,83.57
2018-11-07T10:33:14.470Z,83.39
2018-11-07T10:35:43.654Z,83.51
2018-11-07T10:38:12.890Z,82.99
2018-11-07T10:40:42.062Z,82.46
2018-11-07T10:43:11.495Z,82.55
2018-11-07T10:45:40.769Z,81.63
2018-11-07T10:48:09.994Z,81.78
2018-11-07T10:50:39.316Z,81.51
2018-11-07T10:53:08.758Z,80.83
2018-11-07T10:55:38.004Z,81.99
2018-11-07T10:58:07.269Z,81.32
2018-11-07T11:00:41.703Z,81.31
2018-11-07T11:03:15.961Z,80.75
2018-11-07T11:05:45.277Z,80.45
2018-11-07T11:08:14.579Z,80.29
2018-11-07T11:10:43.747Z,80.44
2018-11-07T11:13:13.047Z,80.86
2018-11-07T11:15:42.225Z,79.56
2018-11-07T11:18:11.506Z,79.55
2018-11-07T11:20:40.674Z,79.08
2018-11-07T11:23:09.951Z,79.77
2018-11-07T11:25:39.189Z,79.63
2018-11-07T11:28:08.403Z,80.32
2018-11-07T11:30:37.622Z,79.67
2018-11-07T11:33:07.015Z,79.62
2018-11-07T11:35:36.241Z,79.01
2018-11-07T11:38:05.754Z,78.92
2018-11-07T11:40:35.668Z,79.49
2018-11-07T11:43:05.349Z,78.40
2018-11-07T11:45:34.582Z,78.33
2018-11-07T11:48:03.793Z,78.44
2018-11-07T11:50:32.963Z,78.23
2018-11-07T11:53:02.120Z,78.63
2018-11-07T11:55:31.328Z,78.52
2018-11-07T11:58:00.535Z,78.81
2018-11-07T12:00:29.823Z,77.13
2018-11-07T12:02:58.917Z,77.58
2018-11-07T12:05:28.085Z,78.16
2018-11-07T12:07:57.377Z,77.26
2018-11-07T12:10:27.037Z,77.10
2018-11-07T12:12:57.348Z,76.76
2018-11-07T12:15:27.571Z,76.90
2018-11-07T12:17:57.200Z,77.46
2018-11-07T12:20:26.377Z,77.27
2018-11-07T12:22:55.543Z,77.63
2018-11-07T12:25:24.760Z,77.13
2018-11-07T12:27:53.940Z,77.32
2018-11-07T12:30:24.007Z,76.63
2018-11-07T12:32:54.179Z,77.24
2018-11-07T12:35:23.566Z,77.10
2018-11-07T12:37:52.791Z,76.52
2018-11-07T12:40:21.998Z,76.56
2018-11-07T12:42:51.249Z,76.67
2018-11-07T12:45:20.484Z,76.47
2018-11-07T12:47:49.703Z,75.55
2018-11-07T12:50:21.602Z,76.47
2018-11-07T12:52:50.706Z,75.18
2018-11-07T12:55:20.722Z,75.75
2018-11-07T12:57:50.039Z,75.43
2018-11-07T13:00:21.534Z,76.01
2018-11-07T13:02:50.923Z,75.87
2018-11-07T13:05:20.747Z,75.99
2018-11-07T13:07:50.557Z,76.37
2018-11-07T13:10:20.908Z,76.94
2018-11-07T13:12:50.624Z,76.46
2018-11-07T13:15:19.946Z,76.21
2018-11-07T13:17:50.150Z,76.83
2018-11-07T13:20:20.667Z,76.61
2018-11-07T13:22:51.087Z,76.91
2018-11-07T13:25:20.709Z,76.32
2018-11-07T13:27:49.899Z,77.20
2018-11-07T13:30:20.294Z,77.43
2018-11-07T13:32:49.524Z,77.14
2018-11-07T13:35:19.430Z,76.87
2018-11-07T13:37:49.485Z,76.54
2018-11-07T13:40:20.014Z,76.56
2018-11-07T13:42:49.253Z,76.96
2018-11-07T13:45:19.830Z,77.64
2018-11-07T13:47:50.113Z,77.20
2018-11-07T13:50:20.060Z,77.16
2018-11-07T13:52:49.261Z,78.07
2018-11-07T13:55:18.426Z,77.84
2018-11-07T13:57:47.628Z,77.76
2018-11-07T14:00:18.317Z,77.75
2018-11-07T14:02:48.128Z,78.22
2018-11-07T14:05:17.402Z,78.44
2018-11-07T14:07:46.765Z,78.60
2018-11-07T14:10:26.571Z,78.64
2018-11-07T14:12:55.861Z,78.51
2018-11-07T14:15:25.034Z,78.40
2018-11-07T14:17:54.344Z,78.62
2018-11-07T14:20:23.630Z,78.91
2018-11-07T14:22:52.835Z,79.09
2018-11-07T14:25:22.023Z,78.67
2018-11-07T14:27:51.465Z,79.06
2018-11-07T14:30:21.195Z,78.66
2018-11-07T14:32:55.351Z,78.86
2018-11-07T14:35:24.631Z,78.61
2018-11-07T14:37:54.467Z,79.12
2018-11-07T14:40:23.670Z,78.99
2018-11-07T14:42:52.888Z,79.57
2018-11-07T14:45:22.373Z,79.45
2018-11-07T14:47:51.712Z,80.50
2018-11-07T14:50:20.874Z,80.29
2018-11-07T14:52:50.062Z,80.99
2018-11-07T14:55:19.257Z,81.05
2018-11-07T14:57:48.452Z,81.42
2018-11-07T15:00:18.082Z,81.36
2018-11-07T15:02:47.554Z,81.87
2018-11-07T15:05:17.591Z,82.11
2018-11-07T15:07:47.175Z,82.58
2018-11-07T15:10:17.152Z,82.82
2018-11-07T15:12:46.370Z,83.22
2018-11-07T15:15:16.912Z,83.95
2018-11-07T15:17:46.103Z,84.19
2018-11-07T15:20:16.220Z,84.59
2018-11-07T15:22:45.399Z,84.68
2018-11-07T15:25:15.611Z,85.24
2018-11-07T15:27:45.735Z,85.43
2018-11-07T15:30:15.793Z,85.90
2018-11-07T15:32:45.866Z,85.90
2018-11-07T15:35:15.094Z,86.46
2018-11-07T15:37:44.251Z,86.38
2018-11-07T15:40:14.698Z,87.16
2018-11-07T15:42:44.395Z,87.68
2018-11-07T15:45:15.128Z,88.03
2018-11-07T15:47:44.613Z,88.62
2018-11-07T15:50:19.547Z,88.53
2018-11-07T15:52:49.198Z,89.03
2018-11-07T15:55:18.432Z,88.97
2018-11-07T15:57:47.643Z,88.86
2018-11-07T16:00:17.928Z,89.27
2018-11-07T16:02:47.084Z,89.92
2018-11-07T16:05:16.924Z,90.08
2018-11-07T16:07:46.128Z,90.21
2018-11-07T16:10:16.026Z,90.28
2018-11-07T16:12:45.259Z,90.88
2018-11-07T16:15:16.100Z,91.48
2018-11-07T16:17:45.398Z,91.50
2018-11-07T16:20:15.987Z,91.21
2018-11-07T16:22:46.036Z,91.34
2018-11-07T16:25:15.258Z,91.68
2018-11-07T16:27:45.196Z,92.07
2018-11-07T16:30:16.894Z,92.09
2018-11-07T16:32:46.222Z,92.40
2018-11-07T16:35:15.787Z,92.94
2018-11-07T16:37:45.116Z,93.09
2018-11-07T16:40:15.495Z,93.04
2018-11-07T16:42:45.156Z,93.00
2018-11-07T16:45:15.521Z,93.71
2018-11-07T16:47:44.906Z,93.95
2018-11-07T16:50:15.393Z,93.84
2018-11-07T16:52:44.751Z,93.79
2018-11-07T16:55:14.369Z,94.25
2018-11-07T16:57:43.567Z,94.37
2018-11-07T17:00:18.019Z,94.52
2018-11-07T17:02:48.182Z,94.87
2018-11-07T17:05:18.077Z,94.77
2018-11-07T17:07:47.689Z,94.74
2018-11-07T17:10:17.269Z,95.10
2018-11-07T17:12:46.618Z,95.20
2018-11-07T17:15:15.998Z,95.51
2018-11-07T17:17:45.237Z,95.99
2018-11-07T17:20:15.429Z,96.08
2018-11-07T17:22:44.986Z,96.13
2018-11-07T17:25:16.447Z,96.40
2018-11-07T17:27:45.745Z,96.82
2018-11-07T17:30:16.051Z,96.43
2018-11-07T17:32:45.290Z,96.51
2018-11-07T17:35:15.871Z,96.80
2018-11-07T17:37:45.580Z,96.90
2018-11-07T17:40:17.397Z,97.11
2018-11-07T17:42:47.217Z,97.17
2018-11-07T17:45:18.086Z,97.22
2018-11-07T17:47:48.244Z,97.29
2018-11-07T17:50:18.165Z,97.29
2018-11-07T17:52:47.634Z,97.82
2018-11-07T17:55:17.715Z,97.65
2018-11-07T17:57:47.014Z,97.54
2018-11-07T18:00:18.630Z,97.71
2018-11-07T18:02:47.988Z,97.65
2018-11-07T18:05:17.320Z,97.44
2018-11-07T18:07:46.987Z,97.91
2018-11-07T18:10:17.603Z,98.02
2018-11-07T18:12:47.336Z,98.05
2018-11-07T18:15:16.580Z,97.76
2018-11-07T18:17:45.765Z,97.95
2018-11-07T18:20:15.791Z,98.00
2018-11-07T18:22:45.026Z,97.79
2018-11-07T18:25:15.150Z,98.97
2018-11-07T18:27:44.386Z,98.68
2018-11-07T18:30:14.859Z,99.08
2018-11-07T18:32:44.767Z,98.55
2018-11-07T18:35:15.446Z,98.70
2018-11-07T18:37:44.752Z,98.74
2018-11-07T18:40:15.705Z,99.21
2018-11-07T18:42:44.917Z,99.10
2018-11-07T18:45:14.509Z,99.57
2018-11-07T18:47:45.317Z,99.37
2018-11-07T18:50:17.119Z,99.87
2018-11-07T18:52:46.312Z,99.74
2018-11-07T18:55:16.626Z,99.67
2018-11-07T18:57:46.461Z,99.62
2018-11-07T19:00:17.698Z,100.00
2018-11-07T19:02:47.635Z,100.00
2018-11-07T19:05:17.002Z,100.00
2018-11-07T19:07:46.314Z,100.00
2018-11-07T19:10:17.707Z,100.00
2018-11-07T19:12:47.936Z,100.00
2018-11-07T19:15:17.760Z,100.00
2018-11-07T19:18:56.814Z,100.00
2018-11-07T19:21:26.185Z,100.00
2018-11-07T19:23:55.690Z,100.00
2018-11-07T19:26:25.060Z,100.00
2018-11-07T19:28:54.270Z,100.00
2018-11-07T19:31:23.591Z,100.00
2018-11-07T19:33:52.863Z,100.00
2018-11-07T19:36:22.076Z,100.00
2018-11-07T19:38:51.235Z,100.00
2018-11-07T19:41:20.486Z,100.00
2018-11-07T19:43:49.789Z,100.00
2018-11-07T19:46:19.012Z,100.00
2018-11-07T19:48:48.228Z,100.00
2018-11-07T19:51:17.400Z,100.00
2018-11-07T19:53:46.768Z,100.00
2018-11-07T19:56:16.097Z,100.00
2018-11-07T19:58:46.011Z,100.00
2018-11-07T20:01:15.432Z,100.00
2018-11-07T20:03:44.691Z,100.00
2018-11-07T20:06:14.038Z,100.00
2018-11-07T20:08:43.247Z,100.00
2018-11-07T20:11:12.576Z,100.00
2018-11-07T20:13:41.924Z,100.00
2018-11-07T20:16:11.940Z,100.00
2018-11-07T20:18:41.199Z,100.00
2018-11-07T20:21:10.454Z,100.00
2018-11-07T20:23:39.684Z,100.00
2018-11-07T20:26:09.076Z,100.00
2018-11-07T20:28:38.438Z,100.00
2018-11-07T20:31:07.800Z,100.00
2018-11-07T20:33:37.866Z,100.00
2018-11-07T20:36:07.202Z,100.00
2018-11-07T20:38:36.435Z,100.00
2018-11-07T20:41:05.907Z,100.00
2018-11-07T20:43:35.269Z,100.00
2018-11-07T20:46:04.523Z,100.00
2018-11-07T20:48:33.787Z,100.00
2018-11-07T20:51:03.113Z,100.00
2018-11-07T20:53:32.354Z,100.00
2018-11-07T20:56:01.808Z,100.00
2018-11-07T20:58:31.304Z,100.00
2018-11-07T21:01:00.566Z,100.00
2018-11-07T21:03:29.786Z,100.00
2018-11-07T21:05:59.075Z,100.00
2018-11-07T21:08:28.296Z,100.00
2018-11-07T21:10:57.678Z,100.00
2018-11-07T21:13:26.942Z,100.00
2018-11-07T21:15:56.262Z,100.00
2018-11-07T21:18:25.487Z,100.00
2018-11-07T21:20:54.717Z,100.00
2018-11-07T21:23:23.861Z,100.00
2018-11-07T21:25:53.070Z,100.00
2018-11-07T21:28:22.333Z,100.00
2018-11-07T21:30:51.559Z,100.00
2018-11-07T21:33:21.492Z,100.00
2018-11-07T21:35:50.697Z,100.00
2018-11-07T21:38:20.060Z,100.00
2018-11-07T21:40:49.345Z,100.00
2018-11-07T21:43:18.703Z,100.00
2018-11-07T21:45:47.901Z,100.00
2018-11-07T21:48:19.838Z,100.00
2018-11-07T21:50:49.109Z,100.00
2018-11-07T21:53:19.031Z,100.00
2018-11-07T21:55:48.234Z,100.00
2018-11-07T21:58:17.447Z,100.00
2018-11-07T22:00:46.665Z,100.00
2018-11-07T22:03:15.876Z,100.00
2018-11-07T22:05:45.017Z,100.00
2018-11-07T22:08:14.320Z,100.00
2018-11-07T22:10:43.469Z,100.00
2018-11-07T22:13:12.684Z,100.00
2018-11-07T22:15:42.682Z,100.00
2018-11-07T22:18:12.541Z,100.00
2018-11-07T22:20:41.755Z,100.00
2018-11-07T22:23:11.534Z,100.00
2018-11-07T22:25:40.688Z,100.00
2018-11-07T22:28:09.863Z,100.00
2018-11-07T22:30:39.025Z,100.00
2018-11-07T22:33:08.334Z,100.00
2018-11-07T22:35:37.494Z,100.00
2018-11-07T22:38:06.691Z,100.00
2018-11-07T22:40:35.863Z,100.00
2018-11-07T22:43:05.408Z,100.00
2018-11-07T22:45:34.576Z,100.00
2018-11-07T22:48:03.834Z,100.00
2018-11-07T22:50:33.067Z,100.00
2018-11-07T22:53:02.284Z,100.00
2018-11-07T22:55:31.646Z,100.00
2018-11-07T22:58:00.822Z,100.00
2018-11-07T23:00:35.490Z,100.00
2018-11-07T23:03:04.830Z,100.00
2018-11-07T23:05:34.026Z,100.00
2018-11-07T23:08:03.236Z,100.00
2018-11-07T23:10:32.424Z,100.00
2018-11-07T23:13:02.474Z,100.00
2018-11-07T23:15:36.766Z,100.00
2018-11-07T23:18:06.415Z,100.00
2018-11-07T23:20:35.644Z,100.00
2018-11-07T23:23:05.063Z,100.00
2018-11-07T23:25:34.250Z,100.00
2018-11-07T23:28:03.814Z,100.00
2018-11-07T23:30:32.983Z,100.00
2018-11-07T23:33:03.266Z,100.00
2018-11-07T23:35:32.538Z,100.00
2018-11-07T23:38:01.711Z,100.00
2018-11-07T23:40:30.907Z,100.00
2018-11-07T23:43:00.119Z,100.00
2018-11-07T23:45:29.341Z,100.00
2018-11-07T23:47:58.549Z,100.00
2018-11-07T23:50:27.723Z,100.00
2018-11-07T23:52:56.901Z,100.00
2018-11-07T23:55:26.503Z,100.00
2018-11-07T23:57:55.697Z,100.00
